DRI Storm Peak Lab. Weather observations

Data are for 5 minute period ending at time listed.
 Day   Time    Ave.   Ave.  Ave.  Vector  Max.   Total    Baro.    Solar      Aerosol      Ave.  Ultrafine   Snow  
  of    of     Air    Rel.  Wind   Wind   Wind  Precip.   Pres.  Radiation   Aerosol      Ozone   Aerosol    Depth 
Year   Day     Temp.  Hum.  Speed  Dir.   Gust                               Ave.   Max.            Ave.           
2019   (MST)    F      %     mph   deg.    mph    in.      mb.     w/m2         #/cm3      ppbv    #/cm3      in.  
-------------------------------------------------------------------------------------------------------------------
  52    6:45   -0.5    95    4.9   140     7.9   999.00    672.8    999.0    999000   999000   999.0    999000   999.0
  52    6:50   -0.5    95    6.2   140    14.1   999.00    672.8    999.0    999000   999000   999.0    999000   999.0
  52    6:55   -0.5    95    4.8   129     9.4   999.00    672.8    999.0    999000   999000   999.0    999000   999.0
  52    7:00   -0.5    95    5.2   131     8.7   999.00    672.8    999.0    999000   999000   999.0    999000   999.0
  52    7:05   -0.4    95    4.0   131     5.7   999.00    672.8    999.0    999000   999000   999.0    999000   999.0
  52    7:10   -0.3    95    3.9   139     5.9   999.00    672.8    999.0    999000   999000   999.0    999000   999.0
  52    7:15   -0.3    95    3.5   138     5.3   999.00    672.9    999.0    999000   999000   999.0    999000   999.0
  52    7:20   -0.2    95    4.0   135     5.9   999.00    672.9    999.0    999000   999000   999.0    999000   999.0
  52    7:25   -0.1    95    5.0   131     9.1   999.00    672.9    999.0    999000   999000   999.0    999000   999.0
  52    7:30   -0.0    96    4.5   132     8.3   999.00    673.0    999.0    999000   999000   999.0    999000   999.0
  52    7:35    0.1    96    3.9   133     6.1   999.00    673.0    999.0    999000   999000   999.0    999000   999.0
  52    7:40    0.2    96    4.5   134     7.8   999.00    673.1    999.0    999000   999000   999.0    999000   999.0
  52    7:45    0.3    96    4.6   135     7.4   999.00    673.1    999.0    999000   999000   999.0    999000   999.0
  52    7:50    0.4    96    4.4   135     8.7   999.00    673.2    999.0    999000   999000   999.0    999000   999.0
  52    7:55    0.6    96    4.2   134     6.5   999.00    673.2    999.0    999000   999000   999.0    999000   999.0
  52    8:00    0.8    96    3.4   134     6.3   999.00    673.2    999.0    999000   999000   999.0    999000   999.0
  52    8:05    1.0    96    4.1   133     8.1   999.00    673.2    999.0    999000   999000   999.0    999000   999.0
  52    8:10    1.2    97    5.0   133    10.0   999.00    673.2    999.0    999000   999000   999.0    999000   999.0
  52    8:15    1.4    97    4.4   134     6.6   999.00    673.2    999.0    999000   999000   999.0    999000   999.0
  52    8:20    1.7    97    5.1   136     7.8   999.00    673.2    999.0    999000   999000   999.0    999000   999.0
  52    8:25    1.9    97    4.4   137     8.7   999.00    673.2    999.0    999000   999000   999.0    999000   999.0
  52    8:30    2.2    98    4.1   138     6.6   999.00    673.2    999.0    999000   999000   999.0    999000   999.0
  52    8:35    2.5    98    4.5   139    10.0   999.00    673.3    999.0    999000   999000   999.0    999000   999.0
  52    8:40    2.8    98    4.5   137     7.8   999.00    673.3    999.0    999000   999000   999.0    999000   999.0
  52    8:45    3.1    98    4.3   135     8.1   999.00    673.3    999.0    999000   999000   999.0    999000   999.0
  52    8:50    3.4    99    4.6   140     6.3   999.00    673.3    999.0    999000   999000   999.0    999000   999.0
  52    8:55    3.8    99    4.8   138     7.4   999.00    673.3    999.0    999000   999000   999.0    999000   999.0
  52    9:00    4.1    99    5.1   135    10.7   999.00    673.3    999.0    999000   999000   999.0    999000   999.0
  52    9:05    4.5   100    4.4   140     6.6   999.00    673.4    999.0    999000   999000   999.0    999000   999.0
  52    9:10    4.8   100    5.4   140    11.8   999.00    673.3    999.0    999000   999000   999.0    999000   999.0
  52    9:15    5.1   100    5.8   141    10.9   999.00    673.3    999.0    999000   999000   999.0    999000   999.0
  52    9:20    5.5   100    6.5   137    13.0   999.00    673.4    999.0    999000   999000   999.0    999000   999.0
  52    9:25    6.0   100    6.6   135    11.3   999.00    673.4    999.0    999000   999000   999.0    999000   999.0
  52    9:30    6.4   100    7.5   134    13.2   999.00    673.4    999.0    999000   999000   999.0    999000   999.0
  52    9:35    6.9   100    6.4   128    10.0   999.00    673.4    999.0    999000   999000   999.0    999000   999.0
  52    9:40    7.3   100    6.2   133    10.6   999.00    673.4    999.0    999000   999000   999.0    999000   999.0
  52    9:45    7.9   100    5.5   130    10.0   999.00    673.4    999.0    999000   999000   999.0    999000   999.0
  52    9:50    8.4   100    4.8   132     7.9   999.00    673.4    999.0    999000   999000   999.0    999000   999.0
  52    9:55    9.1   100    5.2   131     9.4   999.00    673.4    999.0    999000   999000   999.0    999000   999.0
  52   10:00    9.8   100    5.1   136    10.4   999.00    673.4    999.0    999000   999000   999.0    999000   999.0
  52   10:05   10.5   100    5.2   140     9.2   999.00    673.4    999.0    999000   999000   999.0    999000   999.0
  52   10:10   11.4   100    5.2   132    10.4   999.00    673.4    999.0    999000   999000   999.0    999000   999.0
  52   10:15   12.2   100    4.7   134     8.5   999.00    673.4    999.0    999000   999000   999.0    999000   999.0
  52   10:20   13.1   100    5.6   138     9.6   999.00    673.5    999.0    999000   999000   999.0    999000   999.0
  52   10:25   14.0   100    5.4   134     9.6   999.00    673.5    999.0    999000   999000   999.0    999000   999.0
  52   10:30   14.9   100    5.2   130     8.7   999.00    673.5    999.0    999000   999000   999.0    999000   999.0
  52   10:35   15.7   100    5.0   131     9.4   999.00    673.5    999.0    999000   999000   999.0    999000   999.0
  52   10:40   16.4   100    4.0   132     6.3   999.00    673.5    999.0    999000   999000   999.0    999000   999.0
  52   10:45   17.0   100    4.4   133     8.1   999.00    673.5    999.0    999000   999000   999.0    999000   999.0
  52   10:50   17.7   100    4.4   132     7.2   999.00    673.5    999.0    999000   999000   999.0    999000   999.0
  52   10:55   18.4   100    4.1   128     6.3   999.00    673.5    999.0    999000   999000   999.0    999000   999.0
  52   11:00   19.1   100    3.1   129     4.8   999.00    673.5    999.0    999000   999000   999.0    999000   999.0
  52   11:05   19.7   100    5.7   131     8.9   999.00    673.5    999.0    999000   999000   999.0    999000   999.0
  52   11:10   20.5   100    3.7   132     7.6   999.00    673.5    999.0    999000   999000   999.0    999000   999.0
  52   11:15   21.0   100    5.3   132    11.3   999.00    673.5    999.0    999000   999000   999.0    999000   999.0
  52   11:20   21.4   100    4.2   133     6.5   999.00    673.6    999.0    999000   999000   999.0    999000   999.0
  52   11:25   21.9   100    3.1   134     6.1   999.00    673.6    999.0    999000   999000   999.0    999000   999.0
  52   11:30   22.3   100    3.4   134     5.2   999.00    673.6    999.0    999000   999000   999.0    999000   999.0
  52   11:35   22.7   100    3.7   134     6.1   999.00    673.7    999.0    999000   999000   999.0    999000   999.0
  52   11:40   23.2   100    3.3   134     6.1   999.00    673.7    999.0    999000   999000   999.0    999000   999.0
  52   11:45   23.8   100    4.3   149    11.7   999.00    673.7    999.0    999000   999000   999.0    999000   999.0
  52   11:50   23.3   100    5.5   174    10.9   999.00    673.6    999.0    999000   999000   999.0    999000   999.0
  52   11:55   22.6   100    4.7   170    10.0   999.00    673.5    999.0    999000   999000   999.0    999000   999.0
  52   12:00   22.0   100    6.2   172    10.0   999.00    673.5    999.0    999000   999000   999.0    999000   999.0
  52   12:05   21.0   100    8.2   177    17.1   999.00    673.4    999.0    999000   999000   999.0    999000   999.0
  52   12:10   20.0   100    4.5   174    10.0   999.00    673.3    999.0    999000   999000   999.0    999000   999.0
  52   12:15   19.4   100    4.9   168     9.1   999.00    673.4    999.0    999000   999000   999.0    999000   999.0
  52   12:20   19.2   100    4.5   168     7.8   999.00    673.4    999.0    999000   999000   999.0    999000   999.0
  52   12:25   18.5   100    4.4   168     9.4   999.00    673.4    999.0    999000   999000   999.0    999000   999.0
  52   12:30   18.3   100    5.7   164    11.7   999.00    673.3    999.0    999000   999000   999.0    999000   999.0
  52   12:35   18.6   100    4.5   151    10.2   999.00    673.4    999.0    999000   999000   999.0    999000   999.0
  52   12:40   18.8   100    3.8   152     8.1   999.00    673.3    999.0    999000   999000   999.0    999000   999.0
  52   12:45   18.9   100    6.3   171    13.9   999.00    673.3    999.0    999000   999000   999.0    999000   999.0
  52   12:50   18.8   100    6.3   172    12.2   999.00    673.2    999.0    999000   999000   999.0    999000   999.0
  52   12:55   18.0   100    4.4   171     9.2   999.00    673.2    999.0    999000   999000   999.0    999000   999.0
  52   13:00   17.5   100    6.7   172    15.6   999.00    673.2    999.0    999000   999000   999.0    999000   999.0
  52   13:05   17.2   100    4.9   170     8.1   999.00    673.2    999.0    999000   999000   999.0    999000   999.0
  52   13:10   16.8   100    2.9   170     9.4   999.00    673.3    999.0    999000   999000   999.0    999000   999.0
  52   13:15   16.7   100    9.9   172    18.0   999.00    673.3    999.0    999000   999000   999.0    999000   999.0
  52   13:20   16.7   100    4.7   173    12.8   999.00    673.2    999.0    999000   999000   999.0    999000   999.0
  52   13:25   16.6   100    4.9   171     8.9   999.00    673.2    999.0    999000   999000   999.0    999000   999.0
  52   13:30   16.0   100    4.5   170     8.3   999.00    673.1    999.0    999000   999000   999.0    999000   999.0
  52   13:35   15.6   100    5.2   154    12.2   999.00    673.2    999.0    999000   999000   999.0    999000   999.0
  52   13:40   15.6   100    5.9   170    11.8   999.00    673.1    999.0    999000   999000   999.0    999000   999.0
  52   13:45   15.8   100    7.6   168    15.8   999.00    673.2    999.0    999000   999000   999.0    999000   999.0
  52   13:50   15.9   100    4.8   170    12.0   999.00    673.2    999.0    999000   999000   999.0    999000   999.0
  52   13:55   15.4   100    5.3   169    12.6   999.00    673.2    999.0    999000   999000   999.0    999000   999.0
  52   14:00   15.2   100    5.9   169    14.1   999.00    673.2    999.0    999000   999000   999.0    999000   999.0
  52   14:05   15.4   100    7.9   170    18.0   999.00    673.1    999.0    999000   999000   999.0    999000   999.0
  52   14:10   15.4   100    5.4   169    11.5   999.00    673.2    999.0    999000   999000   999.0    999000   999.0
  52   14:15   15.6   100    5.4   168     9.2   999.00    673.2    999.0    999000   999000   999.0    999000   999.0
  52   14:20   15.2   100    5.4   168    10.9   999.00    673.2    999.0    999000   999000   999.0    999000   999.0
  52   14:25   14.7   100    7.0   169    16.1   999.00    673.2    999.0    999000   999000   999.0    999000   999.0
  52   14:30   14.6   100    8.3   171    18.4   999.00    673.3    999.0    999000   999000   999.0    999000   999.0
  52   14:35   14.3   100    5.1   169    11.7   999.00    673.3    999.0    999000   999000   999.0    999000   999.0
  52   14:40   13.7   100    5.2   169    14.6   999.00    673.4    999.0    999000   999000   999.0    999000   999.0
  52   14:45   13.4   100    6.0   176    15.8   999.00    673.4    999.0    999000   999000   999.0    999000   999.0
  52   14:50   13.0   100    5.5   174    14.4   999.00    673.4    999.0    999000   999000   999.0    999000   999.0
  52   14:55   13.1   100    7.7   174    18.4   999.00    673.5    999.0    999000   999000   999.0    999000   999.0
  52   15:00   13.4   100    8.4   173    16.3   999.00    673.5    999.0    999000   999000   999.0    999000   999.0
  52   15:05   13.2   100    7.9   174    19.9   999.00    673.6    999.0    999000   999000   999.0    999000   999.0
  52   15:10   12.8   100    8.1   177    23.2   999.00    673.5    999.0    999000   999000   999.0    999000   999.0
  52   15:15   12.1   100    7.6   176    20.0   999.00    673.6    999.0    999000   999000   999.0    999000   999.0
  52   15:20   12.1   100    4.7   165     9.4   999.00    673.6    999.0    999000   999000   999.0    999000   999.0
  52   15:25   12.4   100    4.7   163    13.5   999.00    673.5    999.0    999000   999000   999.0    999000   999.0
  52   15:30   12.5   100    6.6   169    17.6   999.00    673.6    999.0    999000   999000   999.0    999000   999.0
  52   15:35   12.7   100    7.0   170    16.7   999.00    673.6    999.0    999000   999000   999.0    999000   999.0
  52   15:40   12.8   100    5.8   171    13.0   999.00    673.7    999.0    999000   999000   999.0    999000   999.0
  52   15:45   12.6   100    5.0   171    13.0   999.00    673.7    999.0    999000   999000   999.0    999000   999.0
  52   15:50   12.6   100    6.1   171    12.6   999.00    673.8    999.0    999000   999000   999.0    999000   999.0
  52   15:55   12.6   100    3.7   171     7.4   999.00    673.8    999.0    999000   999000   999.0    999000   999.0
  52   16:00   12.6   100    7.8   171    16.7   999.00    673.9    999.0    999000   999000   999.0    999000   999.0
  52   16:05   12.7   100    4.6   171     9.4   999.00    673.9    999.0    999000   999000   999.0    999000   999.0
  52   16:10   12.5   100    4.4   171     9.6   999.00    673.9    999.0    999000   999000   999.0    999000   999.0
  52   16:15   12.3   100    3.2   171     6.8   999.00    674.0    999.0    999000   999000   999.0    999000   999.0
  52   16:20   12.2   100    2.8   171     4.6   999.00    674.0    999.0    999000   999000   999.0    999000   999.0
  52   16:25   12.1   100    3.4   171     6.8   999.00    673.9    999.0    999000   999000   999.0    999000   999.0
  52   16:30   12.1   100    4.1   170     9.1   999.00    674.0    999.0    999000   999000   999.0    999000   999.0
  52   16:35   12.3   100    5.3   166     9.8   999.00    674.0    999.0    999000   999000   999.0    999000   999.0
  52   16:40   12.3   100    6.2   152    11.7   999.00    674.1    999.0    999000   999000   999.0    999000   999.0
  52   16:45   12.2   100    4.0   161     6.6   999.00    674.1    999.0    999000   999000   999.0    999000   999.0
  52   16:50   12.0   100    4.4   160     6.5   999.00    674.1    999.0    999000   999000   999.0    999000   999.0
  52   16:55   11.9   100    4.3   159     8.3   999.00    674.1    999.0    999000   999000   999.0    999000   999.0
  52   17:00   12.0   100    3.5   157     6.3   999.00    674.2    999.0    999000   999000   999.0    999000   999.0
  52   17:05   12.1   100    2.0   157     3.8   999.00    674.2    999.0    999000   999000   999.0    999000   999.0
  52   17:10   12.2   100    1.8   157     1.8   999.00    674.3    999.0    999000   999000   999.0    999000   999.0
  52   17:15   12.1   100    1.9   157     2.7   999.00    674.3    999.0    999000   999000   999.0    999000   999.0
  52   17:20   12.2   100    2.6   157     4.2   999.00    674.2    999.0    999000   999000   999.0    999000   999.0
  52   17:25   12.0   100    2.4   157     5.0   999.00    674.2    999.0    999000   999000   999.0    999000   999.0
  52   17:30   11.8   100    2.0   157     3.7   999.00    674.2    999.0    999000   999000   999.0    999000   999.0
  52   17:35   11.6   100    1.9   157     2.5   999.00    674.2    999.0    999000   999000   999.0    999000   999.0
  52   17:40   11.3   100    2.8   157     6.5   999.00    674.2    999.0    999000   999000   999.0    999000   999.0
  52   17:45   11.0   100    2.8   157     4.4   999.00    674.2    999.0    999000   999000   999.0    999000   999.0
  52   17:50   10.7   100    2.6   157     4.0   999.00    674.3    999.0    999000   999000   999.0    999000   999.0
  52   17:55   10.3   100    3.5   156     6.6   999.00    674.3    999.0    999000   999000   999.0    999000   999.0
  52   18:00   10.0   100    3.6   154     5.7   999.00    674.3    999.0    999000   999000   999.0    999000   999.0
  52   18:05    9.7   100    4.1   150     6.6   999.00    674.3    999.0    999000   999000   999.0    999000   999.0
  52   18:10    9.4   100    4.4   149     7.2   999.00    674.4    999.0    999000   999000   999.0    999000   999.0
  52   18:15    9.1   100    3.8   149     5.5   999.00    674.4    999.0    999000   999000   999.0    999000   999.0
  52   18:20    8.8   100    3.6   149     5.3   999.00    674.3    999.0    999000   999000   999.0    999000   999.0
  52   18:25    8.6   100    4.0   145     6.8   999.00    674.4    999.0    999000   999000   999.0    999000   999.0
  52   18:30    8.4   100    4.0   140     5.9   999.00    674.4    999.0    999000   999000   999.0    999000   999.0
  52   18:35    8.2   100    4.8   130     9.1   999.00    674.5    999.0    999000   999000   999.0    999000   999.0
  52   18:40    8.1   100    4.5   156     6.3   999.00    674.5    999.0    999000   999000   999.0    999000   999.0
  52   18:45    7.9   100    4.9   144     8.9   999.00    674.5    999.0    999000   999000   999.0    999000   999.0
  52   18:50    7.8   100    4.2   142     5.3   999.00    674.5    999.0    999000   999000   999.0    999000   999.0
  52   18:55    7.7   100    4.6   139     6.6   999.00    674.5    999.0    999000   999000   999.0    999000   999.0
  52   19:00    7.6   100    4.9   133     7.9   999.00    674.5    999.0    999000   999000   999.0    999000   999.0
  52   19:05    7.6   100    4.8   126     7.0   999.00    674.5    999.0    999000   999000   999.0    999000   999.0
  52   19:10    7.5   100    4.9   127     6.3   999.00    674.4    999.0    999000   999000   999.0    999000   999.0
  52   19:15    7.4   100    4.9   140     6.8   999.00    674.4    999.0    999000   999000   999.0    999000   999.0
  52   19:20    7.4   100    5.0   126     8.3   999.00    674.4    999.0    999000   999000   999.0    999000   999.0
  52   19:25    7.3   100    5.7   105     9.4   999.00    674.4    999.0    999000   999000   999.0    999000   999.0
  52   19:30    7.3   100    6.0   108     9.4   999.00    674.4    999.0    999000   999000   999.0    999000   999.0
  52   19:35    7.2   100    5.0   106     7.6   999.00    674.4    999.0    999000   999000   999.0    999000   999.0
  52   19:40    7.1   100    5.9   118     8.3   999.00    674.4    999.0    999000   999000   999.0    999000   999.0
  52   19:45    7.1   100    5.1   117     7.8   999.00    674.5    999.0    999000   999000   999.0    999000   999.0
  52   19:50    7.0   100    5.1   114    12.8   999.00    674.5    999.0    999000   999000   999.0    999000   999.0
  52   19:55    6.9   100    5.5   116     9.8   999.00    674.5    999.0    999000   999000   999.0    999000   999.0
  52   20:00    6.9   100    5.5   119     8.7   999.00    674.6    999.0    999000   999000   999.0    999000   999.0
  52   20:05    6.8   100    5.0   123     7.2   999.00    674.6    999.0    999000   999000   999.0    999000   999.0
  52   20:10    6.7   100    4.9   127     6.1   999.00    674.6    999.0    999000   999000   999.0    999000   999.0
  52   20:15    6.7   100    5.0   128     6.6   999.00    674.6    999.0    999000   999000   999.0    999000   999.0
  52   20:20    6.6   100    5.6   119     7.9   999.00    674.6    999.0    999000   999000   999.0    999000   999.0
  52   20:25    6.5   100    5.8   124    10.4   999.00    674.6    999.0    999000   999000   999.0    999000   999.0
  52   20:30    6.5   100    5.4   128    10.9   999.00    674.6    999.0    999000   999000   999.0    999000   999.0
  52   20:35    6.5   100    5.3   119     6.6   999.00    674.7    999.0    999000   999000   999.0    999000   999.0
  52   20:40    6.5   100    5.3   121     7.8   999.00    674.8    999.0    999000   999000   999.0    999000   999.0
  52   20:45    6.5   100    6.1   130    10.7   999.00    674.8    999.0    999000   999000   999.0    999000   999.0
  52   20:50    6.5   100    5.5   123     7.9   999.00    674.9    999.0    999000   999000   999.0    999000   999.0
  52   20:55    6.5   100    5.6   133     7.8   999.00    674.9    999.0    999000   999000   999.0    999000   999.0
  52   21:00    6.4   100    6.4   130    10.9   999.00    674.9    999.0    999000   999000   999.0    999000   999.0
  52   21:05    6.3   100    6.5   139    12.2   999.00    675.0    999.0    999000   999000   999.0    999000   999.0
  52   21:10    6.4   100    5.8   131     8.3   999.00    675.0    999.0    999000   999000   999.0    999000   999.0
  52   21:15    6.3   100    5.7   133     8.1   999.00    675.0    999.0    999000   999000   999.0    999000   999.0
  52   21:20    6.4   100    6.0   133     9.8   999.00    675.0    999.0    999000   999000   999.0    999000   999.0
  52   21:25    6.3   100    5.8   129     9.8   999.00    675.0    999.0    999000   999000   999.0    999000   999.0
  52   21:30    6.3   100    6.1   129    10.9   999.00    675.0    999.0    999000   999000   999.0    999000   999.0
  52   21:35    6.3   100    6.0   130     8.3   999.00    675.0    999.0    999000   999000   999.0    999000   999.0
  52   21:40    6.2   100    6.2   130     8.7   999.00    675.0    999.0    999000   999000   999.0    999000   999.0
  52   21:45    6.2   100    6.6   137    10.6   999.00    675.0    999.0    999000   999000   999.0    999000   999.0
  52   21:50    6.2   100    6.2   136    11.1   999.00    675.0    999.0    999000   999000   999.0    999000   999.0
  52   21:55    6.2   100    6.5   129    10.6   999.00    675.0    999.0    999000   999000   999.0    999000   999.0
  52   22:00    6.2   100    6.2   132    10.2   999.00    675.0    999.0    999000   999000   999.0    999000   999.0
  52   22:05    6.2   100    5.7   133    10.9   999.00    675.0    999.0    999000   999000   999.0    999000   999.0
  52   22:10    6.2   100    6.2   131     8.7   999.00    675.1    999.0    999000   999000   999.0    999000   999.0
  52   22:15    6.2   100    5.5   128     7.6   999.00    675.1    999.0    999000   999000   999.0    999000   999.0
  52   22:20    6.2   100    6.4   129    11.8   999.00    674.9    999.0    999000   999000   999.0    999000   999.0
  52   22:25    6.2   100    6.5   127    15.2   999.00    674.8    999.0    999000   999000   999.0    999000   999.0
  52   22:30    6.2   100    6.6   127     9.6   999.00    674.7    999.0    999000   999000   999.0    999000   999.0
  52   22:35    6.3   100    7.4   128    12.6   999.00    674.7    999.0    999000   999000   999.0    999000   999.0
  52   22:40    6.3   100    6.3   130    12.0   999.00    674.6    999.0    999000   999000   999.0    999000   999.0
  52   22:45    6.4   100    6.4   131    10.9   999.00    674.5    999.0    999000   999000   999.0    999000   999.0
  52   22:50    6.4   100    6.4   127    11.3   999.00    674.5    999.0    999000   999000   999.0    999000   999.0
  52   22:55    6.4   100    6.5   128    10.4   999.00    674.5    999.0    999000   999000   999.0    999000   999.0
  52   23:00    6.4   100    6.7   127    10.0   999.00    674.4    999.0    999000   999000   999.0    999000   999.0
  52   23:05    6.3   100    6.3   121     8.3   999.00    674.4    999.0    999000   999000   999.0    999000   999.0
  52   23:10    6.4   100    6.7   124    12.4   999.00    674.3    999.0    999000   999000   999.0    999000   999.0
  52   23:15    6.4   100    7.7   126    12.8   999.00    674.3    999.0    999000   999000   999.0    999000   999.0
  52   23:20    6.4   100    6.8   130     9.6   999.00    674.3    999.0    999000   999000   999.0    999000   999.0
  52   23:25    6.3   100    7.4   131    13.0   999.00    674.3    999.0    999000   999000   999.0    999000   999.0
  52   23:30    6.3   100    7.4   128    13.0   999.00    674.2    999.0    999000   999000   999.0    999000   999.0
  52   23:35    6.3   100    7.7   128    15.8   999.00    674.2    999.0    999000   999000   999.0    999000   999.0
  52   23:40    6.3   100    7.0   124    11.1   999.00    674.2    999.0    999000   999000   999.0    999000   999.0
  52   23:45    6.3   100    7.7   125    14.4   999.00    674.2    999.0    999000   999000   999.0    999000   999.0
  52   23:50    6.3   100    6.6   127    10.7   999.00    674.2    999.0    999000   999000   999.0    999000   999.0
  52   23:55    6.3   100    7.2   129    15.0   999.00    674.3    999.0    999000   999000   999.0    999000   999.0
  53    0:00    6.3   100    6.1   130    10.0   999.00    674.3    999.0    999000   999000   999.0    999000   999.0
  53    0:05    6.3   100    6.3   127    10.2   999.00    674.3    999.0    999000   999000   999.0    999000   999.0
  53    0:10    6.3   100    6.5   127    13.5   999.00    674.4    999.0    999000   999000   999.0    999000   999.0
  53    0:15    6.2   100    5.1   125     7.6   999.00    674.4    999.0    999000   999000   999.0    999000   999.0
  53    0:20    6.2   100    6.0   125     9.2   999.00    674.4    999.0    999000   999000   999.0    999000   999.0
  53    0:25    6.1   100    5.8   126    10.7   999.00    674.5    999.0    999000   999000   999.0    999000   999.0
  53    0:30    6.1   100    6.4   126    11.7   999.00    674.5    999.0    999000   999000   999.0    999000   999.0
  53    0:35    6.1   100    6.0   126     8.5   999.00    674.4    999.0    999000   999000   999.0    999000   999.0
  53    0:40    6.0   100    6.7   126    13.7   999.00    674.3    999.0    999000   999000   999.0    999000   999.0
  53    0:45    6.0   100    5.8   126     9.6   999.00    674.3    999.0    999000   999000   999.0    999000   999.0
  53    0:50    6.0   100    6.5   127    12.2   999.00    674.3    999.0    999000   999000   999.0    999000   999.0
  53    0:55    6.0   100    6.0   127     9.8   999.00    674.4    999.0    999000   999000   999.0    999000   999.0
  53    1:00    6.0   100    6.2   124     8.5   999.00    674.3    999.0    999000   999000   999.0    999000   999.0
  53    1:05    6.0   100    6.8   128    14.6   999.00    674.2    999.0    999000   999000   999.0    999000   999.0
  53    1:10    6.0   100    7.5   127    12.8   999.00    674.2    999.0    999000   999000   999.0    999000   999.0
  53    1:15    6.0   100    8.6   126    15.9   999.00    674.3    999.0    999000   999000   999.0    999000   999.0
  53    1:20    6.0   100    8.0   127    15.0   999.00    674.4    999.0    999000   999000   999.0    999000   999.0
  53    1:25    6.0   100    7.0   127    16.3   999.00    674.5    999.0    999000   999000   999.0    999000   999.0
  53    1:30    6.1   100    5.6   127    10.4   999.00    674.5    999.0    999000   999000   999.0    999000   999.0
  53    1:35    6.1   100    6.5   127     9.2   999.00    674.6    999.0    999000   999000   999.0    999000   999.0
  53    1:40    6.2   100    6.6   127    12.4   999.00    674.6    999.0    999000   999000   999.0    999000   999.0
  53    1:45    6.2   100    5.6   127    12.6   999.00    674.6    999.0    999000   999000   999.0    999000   999.0
  53    1:50    6.2   100    6.7   127    14.3   999.00    674.5    999.0    999000   999000   999.0    999000   999.0
  53    1:55    6.3   100    5.3   127    11.5   999.00    674.5    999.0    999000   999000   999.0    999000   999.0
  53    2:00    6.3   100    5.7   127     7.8   999.00    674.6    999.0    999000   999000   999.0    999000   999.0
  53    2:05    6.4   100    5.3   127     8.3   999.00    674.6    999.0    999000   999000   999.0    999000   999.0
  53    2:10    6.5   100    7.9   127    15.6   999.00    674.6    999.0    999000   999000   999.0    999000   999.0
  53    2:15    6.5   100    7.3   127    12.2   999.00    674.5    999.0    999000   999000   999.0    999000   999.0
  53    2:20    6.6   100    7.4   127    13.2   999.00    674.6    999.0    999000   999000   999.0    999000   999.0
  53    2:25    6.7   100    7.3   127    14.1   999.00    674.7    999.0    999000   999000   999.0    999000   999.0
  53    2:30    6.7   100    8.5   127    11.3   999.00    674.8    999.0    999000   999000   999.0    999000   999.0
  53    2:35    6.7   100    7.7   127    13.3   999.00    674.7    999.0    999000   999000   999.0    999000   999.0
  53    2:40    6.7   100    9.7   127    14.8   999.00    674.7    999.0    999000   999000   999.0    999000   999.0
  53    2:45    6.8   100    9.6   127    15.2   999.00    674.6    999.0    999000   999000   999.0    999000   999.0
  53    2:50    6.9   100   10.1   127    15.2   999.00    674.6    999.0    999000   999000   999.0    999000   999.0
  53    2:55    7.0   100    8.7   127    14.1   999.00    674.6    999.0    999000   999000   999.0    999000   999.0
  53    3:00    7.1   100    9.7   127    14.1   999.00    674.7    999.0    999000   999000   999.0    999000   999.0
  53    3:05    7.2   100    9.0   127    15.4   999.00    674.7    999.0    999000   999000   999.0    999000   999.0
  53    3:10    7.2   100    7.2   127    11.8   999.00    674.7    999.0    999000   999000   999.0    999000   999.0
  53    3:15    7.4   100    9.0   127    13.9   999.00    674.8    999.0    999000   999000   999.0    999000   999.0
  53    3:20    7.5   100    7.7   127    12.0   999.00    674.9    999.0    999000   999000   999.0    999000   999.0
  53    3:25    7.6   100    7.0   127    11.5   999.00    674.9    999.0    999000   999000   999.0    999000   999.0
  53    3:30    7.7   100    7.9   127    11.8   999.00    674.9    999.0    999000   999000   999.0    999000   999.0
  53    3:35    7.8   100    7.0   127    11.5   999.00    674.9    999.0    999000   999000   999.0    999000   999.0
  53    3:40    7.9   100    7.6   127    11.3   999.00    675.0    999.0    999000   999000   999.0    999000   999.0
  53    3:45    8.0   100    6.6   127     9.2   999.00    675.2    999.0    999000   999000   999.0    999000   999.0
  53    3:50    8.0   100    6.5   127     8.7   999.00    675.2    999.0    999000   999000   999.0    999000   999.0
  53    3:55    8.1   100    5.9   127    10.4   999.00    675.2    999.0    999000   999000   999.0    999000   999.0
  53    4:00    8.2   100    5.9   127     7.6   999.00    675.2    999.0    999000   999000   999.0    999000   999.0
  53    4:05    8.3   100    5.7   127     8.1   999.00    675.1    999.0    999000   999000   999.0    999000   999.0
  53    4:10    8.3   100    5.1   127     6.6   999.00    675.1    999.0    999000   999000   999.0    999000   999.0
  53    4:15    8.4   100    3.2   127     4.2   999.00    675.2    999.0    999000   999000   999.0    999000   999.0
  53    4:20    8.5   100    3.6   127     5.2   999.00    675.2    999.0    999000   999000   999.0    999000   999.0
  53    4:25    8.7   100    2.0   127     2.9   999.00    675.2    999.0    999000   999000   999.0    999000   999.0
  53    4:30    8.8   100    1.9   127     3.3   999.00    675.3    999.0    999000   999000   999.0    999000   999.0
  53    4:35    8.9   100    2.6   127     4.8   999.00    675.2    999.0    999000   999000   999.0    999000   999.0
  53    4:40    8.9   100    3.1   127     5.7   999.00    675.2    999.0    999000   999000   999.0    999000   999.0
  53    4:45    9.0   100    4.1   127     6.8   999.00    675.2    999.0    999000   999000   999.0    999000   999.0
  53    4:50    9.1   100    6.2   127     7.9   999.00    675.2    999.0    999000   999000   999.0    999000   999.0
  53    4:55    9.2   100    4.4   127     7.2   999.00    675.2    999.0    999000   999000   999.0    999000   999.0
  53    5:00    9.3   100    4.3   127     6.5   999.00    675.3    999.0    999000   999000   999.0    999000   999.0
  53    5:05    9.4   100    3.9   127     5.5   999.00    675.3    999.0    999000   999000   999.0    999000   999.0
  53    5:10    9.4   100    4.2   127     5.7   999.00    675.4    999.0    999000   999000   999.0    999000   999.0
  53    5:15    9.6   100    5.7   127     7.8   999.00    675.5    999.0    999000   999000   999.0    999000   999.0
  53    5:20    9.6   100    5.4   127     7.4   999.00    675.5    999.0    999000   999000   999.0    999000   999.0
  53    5:25    9.8   100    4.9   127     7.8   999.00    675.6    999.0    999000   999000   999.0    999000   999.0
  53    5:30    9.9   100    4.9   127     7.2   999.00    675.6    999.0    999000   999000   999.0    999000   999.0
  53    5:35    9.9   100    5.6   127     7.8   999.00    675.6    999.0    999000   999000   999.0    999000   999.0
  53    5:40   10.0   100    5.9   127     7.6   999.00    675.6    999.0    999000   999000   999.0    999000   999.0
  53    5:45   10.0   100    6.2   127     8.1   999.00    675.5    999.0    999000   999000   999.0    999000   999.0
  53    5:50   10.1   100    7.0   127     8.7   999.00    675.5    999.0    999000   999000   999.0    999000   999.0
  53    5:55   10.1   100    5.7   127     7.4   999.00    675.6    999.0    999000   999000   999.0    999000   999.0
  53    6:00   10.1   100    5.2   127     6.5   999.00    675.6    999.0    999000   999000   999.0    999000   999.0
  53    6:05   10.2   100    4.8   127     6.6   999.00    675.6    999.0    999000   999000   999.0    999000   999.0
  53    6:10   10.2   100    4.9   127     7.6   999.00    675.5    999.0    999000   999000   999.0    999000   999.0
  53    6:15   10.3   100    5.4   127     7.9   999.00    675.6    999.0    999000   999000   999.0    999000   999.0
  53    6:20   10.4   100    4.1   127     5.7   999.00    675.5    999.0    999000   999000   999.0    999000   999.0
  53    6:25   10.4   100    3.6   127     5.7   999.00    675.5    999.0    999000   999000   999.0    999000   999.0
  53    6:30   10.5   100    2.5   127     3.8   999.00    675.6    999.0    999000   999000   999.0    999000   999.0
  53    6:35   10.7   100    2.6   127     4.2   999.00    675.5    999.0    999000   999000   999.0    999000   999.0
  53    6:40   10.8   100    2.9   127     4.8   999.00    675.6    999.0    999000   999000   999.0    999000   999.0

Return to DRI Storm Peak Lab. graphs page.


Western Regional Climate Center,wrcc@dri.edu